Time;durP1;ratioP1;P1;durP2;ratioP2;P2;SDS_P1;SDS_P2;PMS_P1;PMS_P2;Temp;Humidity;BMP_temperature;BMP_pressure;BME280_temperature;BME280_humidity;BME280_pressure;Samples;Min_cycle;Max_cycle;Signal;HPM_P1;HPM_P2
2023/12/05 00:01:44;;;;;;;31.50;26.07;;;;;;;-1.00;71.02;95309.56;5004748;28;20176;-70
2023/12/05 00:04:10;;;;;;;31.43;23.47;;;;;;;-0.87;71.08;95308.50;5003104;28;20534;-68
2023/12/05 00:06:36;;;;;;;39.57;26.47;;;;;;;-0.83;70.64;95312.69;5005399;28;20207;-69
2023/12/05 00:09:02;;;;;;;39.73;25.20;;;;;;;-0.89;70.99;95305.94;5005356;28;20728;-69
2023/12/05 00:11:27;;;;;;;34.20;24.60;;;;;;;-0.83;70.29;95302.38;5005419;28;20438;-69
2023/12/05 00:13:53;;;;;;;33.67;26.43;;;;;;;-0.92;70.84;95294.81;5005788;28;20188;-70
2023/12/05 00:16:18;;;;;;;34.77;24.70;;;;;;;-1.28;72.22;95302.25;5005069;28;20212;-70
2023/12/05 00:18:47;;;;;;;39.93;26.07;;;;;;;-0.96;72.06;95291.47;5005588;28;20214;-69
2023/12/05 00:21:12;;;;;;;31.17;24.47;;;;;;;-1.19;73.00;95306.44;5004055;28;20193;-69
2023/12/05 00:23:37;;;;;;;32.43;25.07;;;;;;;-0.89;72.11;95289.63;5005285;28;20439;-69
2023/12/05 00:26:03;;;;;;;30.80;24.87;;;;;;;-1.09;72.93;95285.69;5005412;28;20211;-69
2023/12/05 00:28:29;;;;;;;33.13;23.93;;;;;;;-0.94;73.51;95281.97;5005137;28;20180;-70
2023/12/05 00:30:55;;;;;;;32.43;23.67;;;;;;;-0.89;73.96;95287.06;5004611;28;20467;-70
2023/12/05 00:33:20;;;;;;;32.83;25.07;;;;;;;-1.05;74.11;95301.06;4998486;28;20594;-69
2023/12/05 00:35:45;;;;;;;33.10;24.50;;;;;;;-0.80;74.17;95286.91;5004105;28;21201;-69
2023/12/05 00:38:11;;;;;;;35.17;25.53;;;;;;;-0.95;74.60;95285.41;5004574;28;20378;-70
2023/12/05 00:40:36;;;;;;;30.00;22.80;;;;;;;-0.75;73.79;95287.66;5005335;28;20203;-69
2023/12/05 00:43:01;;;;;;;32.80;24.30;;;;;;;-0.70;74.26;95285.84;5003007;28;20662;-70
2023/12/05 00:45:27;;;;;;;27.33;21.00;;;;;;;-0.57;73.61;95286.47;5004582;28;20587;-69
2023/12/05 00:47:53;;;;;;;30.93;21.87;;;;;;;-0.49;73.38;95278.63;5003125;28;20249;-70
2023/12/05 00:50:19;;;;;;;27.97;20.43;;;;;;;-0.35;72.79;95280.94;5000659;28;20204;-70
2023/12/05 00:52:44;;;;;;;33.93;23.13;;;;;;;-0.35;73.16;95275.78;5005350;28;20462;-70
2023/12/05 00:55:10;;;;;;;35.73;22.37;;;;;;;-0.36;72.81;95277.47;5004999;28;20235;-70
2023/12/05 00:57:35;;;;;;;32.93;21.73;;;;;;;-0.44;73.37;95269.91;5004434;28;20713;-70
2023/12/05 01:00:00;;;;;;;27.30;20.43;;;;;;;-0.30;73.37;95266.22;5005479;28;20273;-70
2023/12/05 01:02:26;;;;;;;28.70;21.27;;;;;;;-0.37;73.94;95259.47;5005789;28;20180;-69
2023/12/05 01:04:51;;;;;;;37.90;22.20;;;;;;;-0.37;73.08;95257.75;5005958;28;20187;-70
2023/12/05 01:07:17;;;;;;;32.20;24.20;;;;;;;-0.34;73.72;95252.53;5004698;28;20184;-70
2023/12/05 01:09:43;;;;;;;31.23;21.50;;;;;;;-0.48;74.91;95270.84;5004323;28;20176;-69
2023/12/05 01:12:11;;;;;;;27.70;21.63;;;;;;;-0.36;74.88;95263.75;5004799;28;20459;-69
2023/12/05 01:14:37;;;;;;;29.60;21.83;;;;;;;-0.16;74.12;95268.53;5004651;28;20200;-70
2023/12/05 01:17:02;;;;;;;29.83;20.10;;;;;;;-0.18;73.80;95272.84;5006794;28;20829;-70
2023/12/05 01:19:28;;;;;;;34.10;21.97;;;;;;;-0.17;73.05;95272.81;4999890;28;20259;-70
2023/12/05 01:21:53;;;;;;;33.10;22.17;;;;;;;-0.14;73.05;95262.44;5008752;28;20184;-70
2023/12/05 01:24:19;;;;;;;34.17;22.73;;;;;;;-0.12;73.38;95271.00;5007197;28;20955;-70
2023/12/05 01:26:44;;;;;;;31.57;21.50;;;;;;;-0.17;73.65;95265.06;5005715;28;20208;-70
2023/12/05 01:29:09;;;;;;;29.43;20.53;;;;;;;-0.21;72.97;95260.88;5005821;28;20183;-70
2023/12/05 01:31:35;;;;;;;39.13;21.97;;;;;;;-0.20;73.71;95264.31;5006642;28;20211;-70
2023/12/05 01:34:00;;;;;;;27.77;21.17;;;;;;;-0.24;74.29;95271.22;5000990;28;20217;-68
2023/12/05 01:36:28;;;;;;;28.67;20.50;;;;;;;-0.36;74.57;95269.75;5007986;28;20235;-70
2023/12/05 01:38:54;;;;;;;30.77;21.07;;;;;;;-0.22;73.98;95272.91;5002760;28;20727;-70
2023/12/05 01:41:19;;;;;;;26.90;20.60;;;;;;;-0.44;74.29;95279.38;5008581;28;20445;-70
2023/12/05 01:43:45;;;;;;;27.90;21.53;;;;;;;-0.32;74.35;95281.69;5007809;28;20463;-69
2023/12/05 01:46:11;;;;;;;30.90;20.80;;;;;;;-0.20;73.71;95283.19;5006782;28;20234;-69
2023/12/05 01:48:38;;;;;;;30.20;21.13;;;;;;;-0.54;74.80;95281.28;5007529;28;20629;-70
2023/12/05 01:51:05;;;;;;;31.40;21.40;;;;;;;-0.46;75.25;95270.81;5006296;28;20485;-70
2023/12/05 01:53:33;;;;;;;26.40;20.40;;;;;;;-0.36;74.88;95274.91;4999206;28;20446;-70
2023/12/05 01:55:59;;;;;;;29.63;19.40;;;;;;;-0.24;73.92;95274.69;5007362;28;20538;-69
2023/12/05 01:58:25;;;;;;;28.50;19.57;;;;;;;-0.13;73.53;95276.19;5000989;28;20554;-70
2023/12/05 02:00:51;;;;;;;29.67;20.57;;;;;;;-0.13;74.06;95266.72;5007652;28;20443;-69
2023/12/05 02:03:16;;;;;;;27.57;19.30;;;;;;;-0.08;73.32;95270.03;5008370;28;20649;-68
2023/12/05 02:05:43;;;;;;;29.33;20.33;;;;;;;-0.19;74.28;95271.13;5006840;28;20250;-69
2023/12/05 02:08:10;;;;;;;32.37;20.20;;;;;;;-0.13;73.96;95268.44;5007475;28;20172;-70
2023/12/05 02:10:35;;;;;;;38.03;21.33;;;;;;;-0.05;73.23;95258.81;5007872;28;20940;-70
2023/12/05 02:13:01;;;;;;;28.23;19.33;;;;;;;-0.33;74.49;95261.97;5007424;28;20450;-70
2023/12/05 02:15:26;;;;;;;29.27;20.20;;;;;;;-0.08;74.80;95264.88;5007677;28;20207;-70
2023/12/05 02:18:18;;;;;;;26.70;20.30;;;;;;;-0.13;74.78;95258.13;5006405;28;20302;-70
2023/12/05 02:20:55;;;;;;;28.27;18.90;;;;;;;-0.15;74.38;95265.06;5007537;28;20645;-70
2023/12/05 02:23:42;;;;;;;28.23;19.00;;;;;;;-0.09;74.55;95259.78;5006236;28;20457;-70
2023/12/05 02:26:08;;;;;;;32.87;20.60;;;;;;;-0.09;75.26;95262.34;5001998;28;20513;-69
2023/12/05 02:28:34;;;;;;;28.30;19.67;;;;;;;-0.43;76.14;95263.00;5006645;28;20455;-70
2023/12/05 02:31:00;;;;;;;31.30;20.60;;;;;;;-0.56;77.17;95265.00;5007269;28;20462;-69
2023/12/05 02:33:25;;;;;;;28.90;19.43;;;;;;;-0.47;76.59;95259.66;4996979;28;20210;-68
2023/12/05 02:36:04;;;;;;;29.70;20.07;;;;;;;-0.26;75.88;95260.97;4997999;28;20208;-69
2023/12/05 02:38:50;;;;;;;31.10;21.23;;;;;;;-0.42;77.08;95257.00;5006339;28;20226;-70
2023/12/05 02:41:20;;;;;;;26.90;19.30;;;;;;;-0.53;77.38;95266.66;5000732;28;20975;-69
2023/12/05 02:44:10;;;;;;;27.50;19.10;;;;;;;-0.37;77.97;95262.06;5003223;28;20533;-70
2023/12/05 02:46:39;;;;;;;30.50;21.20;;;;;;;-0.29;76.92;95250.69;5005972;28;20538;-70
2023/12/05 02:49:05;;;;;;;28.83;19.17;;;;;;;-0.46;77.52;95242.47;5007498;28;20442;-70
2023/12/05 02:51:30;;;;;;;30.20;19.13;;;;;;;-0.57;79.04;95242.66;5005821;28;20434;-70
2023/12/05 02:53:55;;;;;;;34.60;21.40;;;;;;;-0.52;78.48;95240.88;5005604;28;20180;-70
2023/12/05 02:56:21;;;;;;;28.40;19.60;;;;;;;-0.16;76.93;95251.31;5006225;28;20226;-70
2023/12/05 02:58:47;;;;;;;29.23;19.00;;;;;;;-0.37;78.19;95242.28;5000778;28;20282;-68
2023/12/05 03:01:12;;;;;;;33.10;19.40;;;;;;;-0.13;76.90;95248.66;5006157;28;20431;-69
2023/12/05 03:03:38;;;;;;;34.53;19.73;;;;;;;-0.05;77.36;95246.78;5006999;28;20279;-68
2023/12/05 03:06:03;;;;;;;26.33;17.93;;;;;;;0.05;77.14;95252.59;5006200;28;20234;-70
2023/12/05 03:08:28;;;;;;;31.90;19.20;;;;;;;0.12;76.38;95243.84;5006765;28;20925;-69
2023/12/05 03:10:54;;;;;;;30.63;18.00;;;;;;;0.03;76.31;95241.47;5007302;28;20633;-70
2023/12/05 03:13:19;;;;;;;30.30;18.33;;;;;;;0.10;76.68;95243.03;5007363;28;20279;-70
2023/12/05 03:15:45;;;;;;;31.30;19.30;;;;;;;0.15;76.58;95251.50;5009282;28;20750;-70
2023/12/05 03:18:10;;;;;;;25.23;18.03;;;;;;;0.03;76.68;95240.63;5005867;28;20199;-70
2023/12/05 03:20:35;;;;;;;26.20;19.33;;;;;;;-0.07;77.87;95250.25;5006353;28;20643;-69
2023/12/05 03:23:01;;;;;;;26.50;19.70;;;;;;;0.03;77.92;95246.63;5006702;28;20190;-70
2023/12/05 03:25:26;;;;;;;29.70;19.93;;;;;;;0.28;76.33;95246.06;5005274;28;20292;-70
2023/12/05 03:27:51;;;;;;;28.27;19.80;;;;;;;0.09;77.46;95246.47;5006186;28;20547;-70
2023/12/05 03:30:17;;;;;;;29.10;19.93;;;;;;;-0.34;79.21;95238.78;5005547;28;20208;-69
2023/12/05 03:32:43;;;;;;;26.67;18.70;;;;;;;-0.52;79.85;95243.44;5006442;28;20180;-69
2023/12/05 03:35:08;;;;;;;32.33;19.00;;;;;;;-0.25;80.11;95252.34;5003715;28;20211;-69
2023/12/05 03:37:33;;;;;;;29.50;18.90;;;;;;;0.09;78.53;95241.31;5005549;28;20196;-70
2023/12/05 03:39:59;;;;;;;31.70;19.77;;;;;;;-0.25;79.17;95244.59;5006106;28;20206;-68
2023/12/05 03:42:24;;;;;;;31.70;21.10;;;;;;;-0.08;78.73;95248.56;5006437;28;20168;-70
2023/12/05 03:44:50;;;;;;;26.87;19.20;;;;;;;-0.28;79.89;95244.69;4999724;28;20191;-69
2023/12/05 03:47:15;;;;;;;25.67;19.37;;;;;;;-0.35;79.55;95245.69;5006968;28;20275;-69
2023/12/05 03:49:40;;;;;;;27.57;19.30;;;;;;;-0.17;79.59;95253.91;5007092;28;20176;-70
2023/12/05 03:52:06;;;;;;;28.10;18.53;;;;;;;-0.09;80.11;95259.78;5006473;28;20279;-70
2023/12/05 03:54:31;;;;;;;26.97;18.43;;;;;;;0.12;78.34;95261.91;5006458;28;20191;-69
2023/12/05 03:56:56;;;;;;;29.50;18.07;;;;;;;0.03;78.78;95261.25;5005965;28;20791;-69
2023/12/05 03:59:22;;;;;;;31.00;19.00;;;;;;;-0.03;78.92;95247.56;5006716;28;20200;-70
2023/12/05 04:01:47;;;;;;;31.13;18.50;;;;;;;0.13;78.29;95255.84;5006033;28;20203;-70
2023/12/05 04:04:13;;;;;;;30.47;20.93;;;;;;;0.31;77.21;95262.34;5005176;28;20184;-70
2023/12/05 04:06:38;;;;;;;33.23;19.73;;;;;;;0.18;78.14;95256.59;5003921;28;20255;-69
2023/12/05 04:09:06;;;;;;;25.83;18.80;;;;;;;-0.02;78.72;95259.59;5006335;28;20176;-69
2023/12/05 04:11:33;;;;;;;30.30;18.30;;;;;;;0.11;79.10;95273.09;5006011;28;20190;-71
2023/12/05 04:13:59;;;;;;;30.13;20.70;;;;;;;0.45;78.08;95268.91;5005215;28;20930;-70
2023/12/05 04:16:25;;;;;;;25.60;17.63;;;;;;;0.54;77.73;95266.97;5004244;28;20553;-70
2023/12/05 04:18:51;;;;;;;24.87;18.60;;;;;;;0.37;79.49;95258.78;5007221;28;20507;-69
2023/12/05 04:21:19;;;;;;;27.17;18.90;;;;;;;0.45;78.05;95245.69;4998775;28;20509;-71
2023/12/05 04:23:46;;;;;;;26.13;16.60;;;;;;;0.40;78.33;95236.34;5006066;28;20191;-70
2023/12/05 04:26:17;;;;;;;31.93;18.97;;;;;;;0.36;78.79;95239.03;5005737;28;20450;-70
2023/12/05 04:28:42;;;;;;;23.20;16.80;;;;;;;0.18;79.24;95242.84;5005824;28;20492;-70
2023/12/05 04:31:07;;;;;;;34.63;17.70;;;;;;;-0.08;81.64;95241.66;5007042;28;20423;-70
2023/12/05 04:33:33;;;;;;;27.17;18.10;;;;;;;0.22;81.19;95256.53;5004671;28;20680;-70
2023/12/05 04:35:58;;;;;;;24.23;17.27;;;;;;;0.40;80.60;95256.97;5006668;28;20204;-69
2023/12/05 04:38:23;;;;;;;25.17;17.60;;;;;;;0.16;81.53;95248.03;5006888;28;20707;-70
2023/12/05 04:40:49;;;;;;;30.53;18.87;;;;;;;0.10;81.67;95249.91;5008880;28;20903;-70
2023/12/05 04:43:14;;;;;;;25.60;16.23;;;;;;;0.35;80.80;95260.53;5013776;28;20211;-70
2023/12/05 04:45:40;;;;;;;30.80;18.57;;;;;;;0.51;80.27;95261.03;5010050;28;20203;-70
2023/12/05 04:48:05;;;;;;;28.07;18.30;;;;;;;0.40;80.29;95246.66;5008426;28;20598;-70
2023/12/05 04:50:31;;;;;;;26.80;18.57;;;;;;;0.19;81.59;95244.56;5006063;28;20179;-70
2023/12/05 04:52:56;;;;;;;28.33;18.00;;;;;;;0.28;81.95;95241.75;5001650;28;20176;-70
2023/12/05 04:55:21;;;;;;;33.00;20.53;;;;;;;0.73;80.08;95243.28;5009693;28;20203;-70
2023/12/05 04:57:47;;;;;;;28.80;19.80;;;;;;;0.88;79.43;95230.03;5004036;28;20294;-70
2023/12/05 05:00:13;;;;;;;23.30;17.00;;;;;;;0.97;78.75;95239.25;5005636;28;20226;-70
2023/12/05 05:02:38;;;;;;;22.50;15.97;;;;;;;0.86;79.16;95242.13;5005818;28;20267;-69
2023/12/05 05:05:04;;;;;;;25.90;17.07;;;;;;;0.82;79.75;95250.81;5007107;28;20195;-71
2023/12/05 05:07:29;;;;;;;26.03;16.47;;;;;;;0.41;81.32;95252.66;5008019;28;20176;-70
2023/12/05 05:09:55;;;;;;;29.30;17.03;;;;;;;0.20;82.81;95253.97;5005853;28;20682;-70
2023/12/05 05:12:20;;;;;;;23.70;16.50;;;;;;;0.47;81.25;95249.91;5006932;28;20202;-70
2023/12/05 05:14:45;;;;;;;22.90;14.90;;;;;;;0.30;82.29;95252.88;5008431;28;20958;-70
2023/12/05 05:17:11;;;;;;;24.73;16.20;;;;;;;0.45;81.53;95256.00;5007313;28;20211;-69
2023/12/05 05:19:36;;;;;;;21.40;15.83;;;;;;;0.63;80.78;95259.00;5001431;28;20656;-70
2023/12/05 05:22:01;;;;;;;26.03;17.43;;;;;;;0.29;81.14;95258.94;5007983;28;20187;-69
2023/12/05 05:24:27;;;;;;;22.70;16.80;;;;;;;0.23;82.78;95255.66;4997887;28;20576;-69
2023/12/05 05:26:53;;;;;;;24.90;16.13;;;;;;;0.52;81.41;95249.81;5001846;28;20201;-71
2023/12/05 05:29:19;;;;;;;27.20;16.43;;;;;;;0.48;80.83;95261.97;5003867;28;20599;-70
2023/12/05 05:31:44;;;;;;;24.63;16.10;;;;;;;0.50;81.64;95262.78;5006891;28;20439;-70
2023/12/05 05:34:09;;;;;;;23.83;15.87;;;;;;;0.34;82.46;95257.09;5003020;28;20188;-70
2023/12/05 05:36:35;;;;;;;22.93;15.57;;;;;;;0.46;81.84;95258.56;5005770;28;20195;-70
2023/12/05 05:39:00;;;;;;;25.00;16.40;;;;;;;0.41;82.43;95263.81;5004733;28;20196;-70
2023/12/05 05:41:26;;;;;;;25.57;15.50;;;;;;;0.69;80.48;95268.34;5002027;28;20251;-70
2023/12/05 05:43:51;;;;;;;24.40;16.63;;;;;;;0.67;80.95;95271.88;5000886;28;20212;-70
2023/12/05 05:46:17;;;;;;;25.40;15.93;;;;;;;0.73;80.69;95279.44;5002611;28;20683;-70
2023/12/05 05:48:43;;;;;;;24.43;16.43;;;;;;;0.72;80.66;95272.59;5006186;28;20216;-71
2023/12/05 05:51:09;;;;;;;28.40;16.30;;;;;;;0.75;80.51;95269.94;5003686;28;20289;-71
2023/12/05 05:53:34;;;;;;;19.13;15.00;;;;;;;0.81;79.91;95274.97;5006795;28;20447;-69
2023/12/05 05:56:00;;;;;;;31.93;19.00;;;;;;;1.02;79.67;95281.34;4996965;28;20227;-72
2023/12/05 05:58:25;;;;;;;23.43;16.03;;;;;;;0.94;80.18;95284.09;5000525;28;20204;-70
2023/12/05 06:00:51;;;;;;;28.60;17.80;;;;;;;1.02;79.18;95279.59;5001895;28;20187;-69
2023/12/05 06:03:16;;;;;;;25.77;16.90;;;;;;;1.25;78.12;95281.63;4998628;28;20202;-71
2023/12/05 06:05:41;;;;;;;22.50;16.53;;;;;;;1.32;77.96;95277.13;5004724;28;20300;-70
2023/12/05 06:08:07;;;;;;;25.53;16.23;;;;;;;1.27;77.57;95279.81;5005665;28;20195;-70
2023/12/05 06:10:32;;;;;;;25.40;17.37;;;;;;;1.24;77.75;95273.91;5008691;28;20589;-71
2023/12/05 06:12:57;;;;;;;25.83;15.13;;;;;;;1.34;77.83;95275.34;4994771;28;20267;-70
2023/12/05 06:15:23;;;;;;;22.53;15.20;;;;;;;1.20;77.83;95269.69;5007323;28;20196;-69
2023/12/05 06:17:48;;;;;;;23.03;15.40;;;;;;;1.16;77.96;95286.16;5005953;28;20310;-70
2023/12/05 06:20:14;;;;;;;23.83;15.90;;;;;;;1.12;78.15;95290.56;5006959;28;20538;-70
2023/12/05 06:22:39;;;;;;;24.60;15.53;;;;;;;1.12;78.96;95292.31;5006680;28;20180;-72
2023/12/05 06:25:05;;;;;;;26.53;15.27;;;;;;;1.01;79.56;95301.13;5006403;28;20299;-69
2023/12/05 06:27:31;;;;;;;28.43;16.93;;;;;;;1.00;79.28;95298.63;5005867;28;20539;-71
2023/12/05 06:29:56;;;;;;;31.47;17.33;;;;;;;0.99;79.56;95302.94;4999508;28;20428;-70
2023/12/05 06:32:21;;;;;;;22.80;16.07;;;;;;;0.99;79.31;95304.66;5006524;28;20736;-70
2023/12/05 06:34:47;;;;;;;30.27;17.17;;;;;;;0.91;79.32;95304.00;4987078;28;20169;-70
2023/12/05 06:37:12;;;;;;;27.57;16.20;;;;;;;0.78;79.65;95306.88;4986006;28;20175;-70
2023/12/05 06:39:37;;;;;;;27.97;16.20;;;;;;;0.87;80.30;95299.78;4986492;28;20238;-70
2023/12/05 06:42:03;;;;;;;25.13;15.27;;;;;;;0.52;80.85;95309.19;4986788;28;20208;-71
2023/12/05 06:44:29;;;;;;;24.43;16.77;;;;;;;0.24;82.26;95302.06;4986005;28;20624;-70
2023/12/05 06:46:54;;;;;;;26.03;17.10;;;;;;;0.33;82.50;95309.63;4986339;28;20412;-71
2023/12/05 06:49:19;;;;;;;33.47;17.00;;;;;;;0.45;81.41;95308.50;4986945;28;20273;-71
2023/12/05 06:51:45;;;;;;;30.43;17.40;;;;;;;0.73;80.41;95321.63;4987197;28;20188;-71
2023/12/05 06:54:10;;;;;;;25.57;15.80;;;;;;;0.73;80.41;95316.47;4987217;28;20177;-71
2023/12/05 06:56:35;;;;;;;22.53;16.80;;;;;;;0.78;80.16;95324.97;4986614;28;20200;-70
2023/12/05 06:59:03;;;;;;;25.33;16.00;;;;;;;0.80;79.65;95310.28;4986591;28;20204;-70
2023/12/05 07:01:29;;;;;;;23.93;14.97;;;;;;;0.79;79.18;95318.06;4987207;28;20169;-70
2023/12/05 07:03:54;;;;;;;24.43;16.20;;;;;;;0.75;79.25;95311.25;4987222;28;20486;-70
2023/12/05 07:06:19;;;;;;;23.80;15.80;;;;;;;0.95;78.46;95300.47;4986263;28;20261;-70
2023/12/05 07:08:45;;;;;;;25.67;16.40;;;;;;;0.85;79.19;95304.97;4986439;28;20180;-70
2023/12/05 07:11:10;;;;;;;28.43;15.70;;;;;;;0.83;79.43;95317.09;4986383;28;20246;-70
2023/12/05 07:13:35;;;;;;;20.83;15.87;;;;;;;0.83;78.58;95317.09;4986129;28;20857;-71
2023/12/05 07:16:01;;;;;;;26.17;16.83;;;;;;;0.80;79.58;95335.22;4986742;28;20201;-70
2023/12/05 07:18:26;;;;;;;23.53;15.40;;;;;;;0.98;78.36;95336.56;4985652;28;20275;-69
2023/12/05 07:20:52;;;;;;;25.13;16.47;;;;;;;1.11;78.72;95337.97;4988089;28;20204;-69
2023/12/05 07:23:17;;;;;;;27.33;17.03;;;;;;;1.09;78.05;95344.03;4999915;28;20211;-70
2023/12/05 07:25:42;;;;;;;27.50;16.30;;;;;;;1.01;77.91;95337.31;5007275;28;20238;-70
2023/12/05 07:28:08;;;;;;;29.23;18.50;;;;;;;1.03;78.54;95340.72;5007095;28;20267;-70
2023/12/05 07:30:34;;;;;;;31.90;19.37;;;;;;;0.98;79.01;95358.06;5005701;28;20188;-70
2023/12/05 07:32:59;;;;;;;23.33;18.87;;;;;;;1.07;78.61;95354.41;4992433;28;20423;-70
2023/12/05 07:35:24;;;;;;;25.40;15.80;;;;;;;1.10;78.14;95354.34;5007146;28;20746;-69
2023/12/05 07:37:50;;;;;;;30.17;16.97;;;;;;;0.98;78.77;95364.97;5007128;28;20208;-70
2023/12/05 07:40:16;;;;;;;29.13;19.00;;;;;;;1.21;78.52;95369.59;5007429;28;20172;-70
2023/12/05 07:42:41;;;;;;;26.53;17.97;;;;;;;1.40;78.05;95377.75;5007315;28;20203;-71
2023/12/05 07:45:07;;;;;;;30.87;19.30;;;;;;;1.44;77.52;95372.47;5008936;28;20200;-71
2023/12/05 07:47:33;;;;;;;28.17;15.97;;;;;;;1.55;77.26;95372.19;4997976;28;20267;-71
2023/12/05 07:49:59;;;;;;;34.53;17.70;;;;;;;1.59;77.12;95379.00;4987915;28;20412;-70
2023/12/05 07:52:25;;;;;;;28.47;16.43;;;;;;;1.46;77.60;95382.75;5001559;28;20442;-71
2023/12/05 07:54:50;;;;;;;30.63;17.43;;;;;;;1.56;77.64;95371.31;4998503;28;20204;-71
2023/12/05 07:57:21;;;;;;;34.23;17.37;;;;;;;1.60;77.37;95375.50;4992161;28;20419;-72
2023/12/05 07:59:50;;;;;;;28.80;18.40;;;;;;;1.65;76.83;95376.25;4987846;28;20644;-72
2023/12/05 08:02:15;;;;;;;30.93;16.73;;;;;;;1.64;76.61;95374.53;4992048;28;20438;-71
2023/12/05 08:04:41;;;;;;;31.37;18.80;;;;;;;1.80;76.54;95369.84;4991136;28;20988;-70
2023/12/05 08:07:07;;;;;;;24.97;16.13;;;;;;;1.92;76.00;95367.81;5001293;28;20579;-70
2023/12/05 08:09:32;;;;;;;27.60;17.43;;;;;;;1.92;76.22;95365.22;4996820;28;20422;-70
2023/12/05 08:11:58;;;;;;;19.70;14.60;;;;;;;2.02;76.34;95362.34;5005366;28;20183;-70
2023/12/05 08:14:23;;;;;;;23.83;16.30;;;;;;;2.12;75.25;95363.78;5004343;28;20288;-69
2023/12/05 08:16:48;;;;;;;21.00;16.63;;;;;;;2.08;75.90;95375.13;5006437;28;20899;-69
2023/12/05 08:19:14;;;;;;;25.00;16.63;;;;;;;2.10;75.75;95377.66;4998071;28;20330;-71
2023/12/05 08:21:39;;;;;;;22.50;15.17;;;;;;;2.19;75.80;95366.19;5001513;28;20187;-70
2023/12/05 08:24:05;;;;;;;22.73;15.50;;;;;;;2.45;74.95;95378.41;4999374;28;20552;-72
2023/12/05 08:26:31;;;;;;;32.80;18.70;;;;;;;2.71;73.92;95369.88;5002526;28;20207;-68
2023/12/05 08:28:58;;;;;;;35.90;17.07;;;;;;;4.21;72.29;95375.38;5007072;28;20191;-70
2023/12/05 08:31:24;;;;;;;24.23;15.50;;;;;;;3.46;71.51;95377.06;5006101;28;20469;-70
2023/12/05 08:33:49;;;;;;;46.60;17.30;;;;;;;3.16;72.68;95375.41;5006315;28;21037;-69
2023/12/05 08:36:15;;;;;;;24.07;16.00;;;;;;;3.03;73.22;95371.50;4997984;28;20455;-68
2023/12/05 08:38:40;;;;;;;36.13;14.97;;;;;;;3.11;73.78;95366.91;4994733;28;20208;-70
2023/12/05 08:41:05;;;;;;;24.60;16.27;;;;;;;3.21;73.65;95370.06;4997899;28;20353;-69
2023/12/05 08:43:31;;;;;;;19.70;13.83;;;;;;;4.53;69.99;95362.13;4994165;28;20173;-69
2023/12/05 08:45:56;;;;;;;24.87;17.27;;;;;;;6.12;64.29;95354.94;5006451;28;20965;-71
2023/12/05 08:48:21;;;;;;;23.30;15.00;;;;;;;5.25;65.48;95362.81;4993283;28;20176;-68
2023/12/05 08:50:47;;;;;;;30.83;15.80;;;;;;;4.62;67.46;95362.63;5002806;28;20593;-69
2023/12/05 08:53:12;;;;;;;22.80;14.77;;;;;;;4.54;67.95;95371.63;4992902;28;20278;-70
2023/12/05 08:55:39;;;;;;;23.13;15.07;;;;;;;4.14;70.31;95367.88;4993852;28;20228;-69
2023/12/05 08:58:05;;;;;;;30.23;15.73;;;;;;;4.51;70.12;95369.94;4999749;28;20504;-70
2023/12/05 09:00:30;;;;;;;25.50;17.03;;;;;;;4.25;70.29;95360.50;5003854;28;20180;-70
2023/12/05 09:02:56;;;;;;;19.57;13.53;;;;;;;4.05;71.05;95368.19;4999389;28;20179;-70
2023/12/05 09:05:21;;;;;;;23.10;14.10;;;;;;;3.84;72.18;95367.16;4998926;28;20255;-69
2023/12/05 09:07:47;;;;;;;19.93;14.63;;;;;;;3.81;72.57;95368.13;4995310;28;20250;-70
2023/12/05 09:10:12;;;;;;;22.50;15.80;;;;;;;4.79;69.28;95361.13;5003002;28;20176;-69
2023/12/05 09:12:38;;;;;;;19.67;14.60;;;;;;;5.11;67.61;95362.50;4989320;28;20176;-69
2023/12/05 09:15:03;;;;;;;22.70;14.30;;;;;;;4.60;69.58;95367.03;4990661;28;20189;-71
2023/12/05 09:17:29;;;;;;;17.10;13.27;;;;;;;4.36;70.40;95368.78;5000927;28;20865;-70
2023/12/05 09:19:54;;;;;;;38.03;15.63;;;;;;;4.38;70.60;95366.13;4998727;28;20261;-70
2023/12/05 09:22:20;;;;;;;17.97;13.03;;;;;;;4.93;69.35;95358.84;5000706;28;20286;-69
2023/12/05 09:24:47;;;;;;;36.90;15.20;;;;;;;5.58;67.30;95356.31;4986454;28;20272;-69
2023/12/05 09:27:12;;;;;;;29.40;15.50;;;;;;;6.24;64.59;95361.38;4986079;28;20604;-71
2023/12/05 09:29:38;;;;;;;19.13;14.23;;;;;;;5.95;65.23;95360.84;5003587;28;20435;-69
2023/12/05 09:32:04;;;;;;;17.33;13.70;;;;;;;5.99;65.21;95361.59;5005653;28;20790;-70
2023/12/05 09:34:30;;;;;;;23.30;14.37;;;;;;;6.00;65.54;95364.13;4988537;28;20188;-70
2023/12/05 09:36:55;;;;;;;17.63;12.33;;;;;;;5.96;65.91;95372.13;4990252;28;20208;-71
2023/12/05 09:39:21;;;;;;;19.90;13.53;;;;;;;5.79;66.18;95375.38;5001615;28;20428;-70
2023/12/05 09:41:51;;;;;;;18.50;14.73;;;;;;;5.48;67.24;95384.44;4993020;28;20183;-70
2023/12/05 09:44:21;;;;;;;19.40;13.37;;;;;;;5.04;69.28;95387.91;5009464;28;20176;-70
2023/12/05 09:46:50;;;;;;;22.53;14.13;;;;;;;4.97;69.89;95389.03;5007771;28;20538;-69
2023/12/05 09:49:17;;;;;;;16.00;11.30;;;;;;;4.92;70.31;95396.19;5009543;28;20485;-69
2023/12/05 09:51:42;;;;;;;13.03;11.50;;;;;;;4.92;70.17;95395.34;5010093;28;20426;-69
2023/12/05 09:54:09;;;;;;;14.27;11.47;;;;;;;4.87;70.64;95396.34;5009283;28;20415;-69
2023/12/05 09:56:35;;;;;;;22.30;11.50;;;;;;;4.81;70.94;95401.75;5009035;28;20270;-68
2023/12/05 09:59:01;;;;;;;22.67;12.77;;;;;;;4.90;71.49;95397.13;5009136;28;20423;-70
2023/12/05 10:01:27;;;;;;;19.93;11.43;;;;;;;4.86;71.13;95392.03;5009055;28;20430;-70
2023/12/05 10:03:54;;;;;;;20.10;11.37;;;;;;;4.74;71.39;95400.28;5009365;28;20256;-69
2023/12/05 10:06:23;;;;;;;15.47;11.77;;;;;;;4.66;71.69;95394.56;5001493;28;20523;-68
2023/12/05 10:08:51;;;;;;;17.10;12.17;;;;;;;4.68;71.25;95384.94;4989297;28;20451;-69
2023/12/05 10:11:19;;;;;;;17.73;12.17;;;;;;;4.63;71.92;95382.53;4989736;28;20412;-69
2023/12/05 10:13:44;;;;;;;20.03;13.17;;;;;;;4.67;72.18;95383.25;4989829;28;20535;-69
2023/12/05 10:16:10;;;;;;;16.90;11.73;;;;;;;4.64;71.86;95379.00;4990337;28;20918;-70
2023/12/05 10:18:37;;;;;;;26.30;12.77;;;;;;;4.92;70.64;95377.97;4989347;28;20181;-71
2023/12/05 10:21:03;;;;;;;34.80;11.30;;;;;;;5.34;69.61;95356.41;4989072;28;20176;-69
2023/12/05 10:23:28;;;;;;;22.90;12.33;;;;;;;5.77;68.06;95354.66;4989536;28;20969;-68
2023/12/05 10:25:53;;;;;;;20.33;10.30;;;;;;;6.31;66.38;95357.59;4989405;28;20693;-69
2023/12/05 10:28:19;;;;;;;28.53;12.93;;;;;;;6.45;65.69;95356.97;4989773;28;20687;-69
2023/12/05 10:30:45;;;;;;;15.60;11.37;;;;;;;6.67;65.03;95355.09;4989303;28;20184;-70
2023/12/05 10:33:14;;;;;;;14.77;10.90;;;;;;;6.60;64.92;95352.84;4994897;28;20536;-70
2023/12/05 10:35:44;;;;;;;16.03;10.77;;;;;;;6.76;64.83;95344.25;5007115;28;20222;-69
2023/12/05 10:38:11;;;;;;;14.23;11.10;;;;;;;7.04;63.92;95347.31;4988993;28;21014;-69
2023/12/05 10:40:52;;;;;;;15.77;10.67;;;;;;;7.33;62.79;95352.03;4988577;28;20510;-69
2023/12/05 10:43:18;;;;;;;15.90;9.80;;;;;;;7.58;62.57;95348.22;4988862;28;20423;-70
2023/12/05 10:45:44;;;;;;;18.43;10.90;;;;;;;7.75;61.89;95339.56;4988497;28;20416;-70
2023/12/05 10:48:14;;;;;;;14.30;10.13;;;;;;;7.60;62.75;95346.38;4988744;28;20471;-69
2023/12/05 10:50:40;;;;;;;15.23;9.73;;;;;;;7.56;62.49;95345.69;4989216;28;20605;-68
2023/12/05 10:53:06;;;;;;;14.90;9.73;;;;;;;7.73;61.89;95341.41;4994263;28;20511;-70
2023/12/05 10:55:31;;;;;;;12.10;8.40;;;;;;;7.59;61.70;95342.09;5003671;28;20441;-73
2023/12/05 10:57:58;;;;;;;12.03;8.80;;;;;;;7.43;62.59;95350.66;5009358;28;20411;-70
2023/12/05 11:00:24;;;;;;;12.40;8.80;;;;;;;7.72;62.23;95345.78;4992595;28;20279;-70
2023/12/05 11:02:53;;;;;;;14.40;9.33;;;;;;;7.88;62.01;95350.25;5000265;28;20911;-70
2023/12/05 11:05:19;;;;;;;15.50;9.17;;;;;;;7.90;61.25;95345.78;5006308;28;20172;-69
2023/12/05 11:07:44;;;;;;;20.20;9.83;;;;;;;8.04;60.98;95335.50;4989589;28;20404;-70
2023/12/05 11:10:10;;;;;;;27.47;11.13;;;;;;;8.10;61.02;95343.00;4994898;28;20227;-71
2023/12/05 11:12:37;;;;;;;14.83;9.60;;;;;;;8.10;60.64;95337.75;4991535;28;20180;-70
2023/12/05 11:15:04;;;;;;;25.97;9.10;;;;;;;8.19;60.98;95336.47;5001890;28;20206;-71
2023/12/05 11:17:39;;;;;;;14.13;8.63;;;;;;;8.42;60.74;95330.91;4993337;28;20990;-70
2023/12/05 11:20:22;;;;;;;18.03;8.40;;;;;;;8.56;60.12;95338.03;5008554;28;20414;-69